KREO

Rome State Airport

Rome, Oregon, USA
METAR KREO 162352Z AUTO 15009KT 08/M05 A2997 RMK AO1 SLP162 T00781050 10078 20017 56016
Observed Flight Rules
Dec-16 @ 23:52 UTC (32 minutes ago)
Wind
150° at 9 knots
Temperatures Readings
Current 8°C / 46°F
Dewpoint -5°C / 23°F
Humidity 40%
Altimeter 29.97" Hg
Pressure 1016.2 hPa
Elevation 1235
METAR KREO 162352Z AUTO 15009KT 08/M05 A2997 RMK AO1 SLP162 T00781050 10078 20017 56016
Observed Flight Rules
Dec-16 @ 23:52 UTC
(32 minutes ago)
Wind
150° at 9 knots
Temperature Dewpoint
8°C / 46°F -5°C / 23°F
Humidity Altimeter Pressure
40% 29.97" Hg 1016.2 hPa